Time;durP1;ratioP1;P1;durP2;ratioP2;P2;SDS_P1;SDS_P2;PMS_P1;PMS_P2;Temp;Humidity;BMP_temperature;BMP_pressure;BME280_temperature;BME280_humidity;BME280_pressure;Samples;Min_cycle;Max_cycle;Signal;HPM_P1;HPM_P2
2023/07/07 00:02:15;;;;;;;8.60;3.90;;;;;;;;;;5052435;28;20039;-70
2023/07/07 00:04:40;;;;;;;9.95;4.20;;;;;;;;;;5048804;28;20033;-71
2023/07/07 00:07:06;;;;;;;10.27;4.18;;;;;;;;;;5028419;28;20543;-69
2023/07/07 00:09:31;;;;;;;5.95;3.67;;;;;;;;;;5055537;28;20062;-69
2023/07/07 00:11:57;;;;;;;9.57;4.03;;;;;;;;;;5025206;28;20033;-69
2023/07/07 00:14:23;;;;;;;12.00;4.03;;;;;;;;;;5043120;28;20063;-69
2023/07/07 00:16:48;;;;;;;7.55;3.88;;;;;;;;;;5058730;28;20049;-69
2023/07/07 00:19:15;;;;;;;10.20;4.20;;;;;;;;;;5035656;28;20025;-69
2023/07/07 00:21:42;;;;;;;6.72;3.67;;;;;;;;;;5037835;28;20139;-69
2023/07/07 00:24:08;;;;;;;9.75;3.97;;;;;;;;;;5055859;28;20096;-69
2023/07/07 00:26:34;;;;;;;8.48;3.72;;;;;;;;;;5041297;28;20072;-69
2023/07/07 00:29:00;;;;;;;8.43;4.13;;;;;;;;;;5055789;28;20028;-69
2023/07/07 00:31:26;;;;;;;9.95;4.22;;;;;;;;;;5047518;28;20088;-69
2023/07/07 00:33:52;;;;;;;8.27;4.05;;;;;;;;;;5055091;28;20033;-69
2023/07/07 00:36:18;;;;;;;8.20;3.83;;;;;;;;;;5049738;28;20067;-70
2023/07/07 00:38:43;;;;;;;8.95;3.92;;;;;;;;;;5030479;28;20029;-69
2023/07/07 00:41:10;;;;;;;9.20;4.60;;;;;;;;;;5044976;28;20041;-69
2023/07/07 00:43:36;;;;;;;6.75;3.60;;;;;;;;;;5052114;28;20021;-69
2023/07/07 00:46:02;;;;;;;6.47;3.90;;;;;;;;;;5033580;28;20041;-70
2023/07/07 00:48:33;;;;;;;10.32;4.38;;;;;;;;;;5029177;28;20040;-69
2023/07/07 00:51:22;;;;;;;20.75;4.75;;;;;;;;;;5026797;28;20039;-69
2023/07/07 00:53:49;;;;;;;7.70;4.03;;;;;;;;;;5053316;28;20025;-70
2023/07/07 00:56:36;;;;;;;8.15;3.83;;;;;;;;;;5054159;28;20043;-69
2023/07/07 00:59:07;;;;;;;7.53;4.20;;;;;;;;;;5049096;28;20037;-69
2023/07/07 01:01:34;;;;;;;6.65;3.85;;;;;;;;;;5011987;28;20457;-68
2023/07/07 01:04:07;;;;;;;11.50;4.38;;;;;;;;;;5025978;28;20031;-70
2023/07/07 01:06:37;;;;;;;8.07;4.05;;;;;;;;;;5034646;28;20037;-69
2023/07/07 01:09:06;;;;;;;7.07;4.20;;;;;;;;;;5038378;28;20029;-69
2023/07/07 01:11:32;;;;;;;11.73;4.25;;;;;;;;;;5052574;28;20047;-69
2023/07/07 01:14:00;;;;;;;9.27;3.75;;;;;;;;;;5052643;28;20112;-69
2023/07/07 01:16:44;;;;;;;10.80;4.40;;;;;;;;;;5005740;28;1192491;-70
2023/07/07 01:19:28;;;;;;;10.05;4.28;;;;;;;;;;5053271;28;20033;-71
2023/07/07 01:22:11;;;;;;;9.07;4.70;;;;;;;;;;5031297;28;20042;-70
2023/07/07 01:24:45;;;;;;;8.02;4.05;;;;;;;;;;5051317;28;20436;-69
2023/07/07 01:27:46;;;;;;;7.70;3.35;;;;;;;;;;5052241;28;20064;-69
2023/07/07 01:30:36;;;;;;;9.88;4.25;;;;;;;;;;5053904;28;20032;-69
2023/07/07 01:33:06;;;;;;;6.60;4.10;;;;;;;;;;5052074;28;20032;-69
2023/07/07 01:35:32;;;;;;;6.00;3.70;;;;;;;;;;5039785;28;20040;-69
2023/07/07 01:37:59;;;;;;;9.75;4.00;;;;;;;;;;5037599;28;20037;-69
2023/07/07 01:40:44;;;;;;;6.15;3.67;;;;;;;;;;5031353;28;20057;-69
2023/07/07 01:43:16;;;;;;;4.75;3.60;;;;;;;;;;5032085;28;20036;-69
2023/07/07 01:45:47;;;;;;;7.00;3.60;;;;;;;;;;5049312;28;20109;-69
2023/07/07 01:48:59;;;;;;;7.10;4.25;;;;;;;;;;5052085;28;20040;-68
2023/07/07 01:51:31;;;;;;;7.55;4.57;;;;;;;;;;4989258;28;20033;-69
2023/07/07 01:53:58;;;;;;;7.82;3.70;;;;;;;;;;4984330;28;20104;-69
2023/07/07 01:56:28;;;;;;;10.10;4.00;;;;;;;;;;5007629;28;20036;-69
2023/07/07 01:58:54;;;;;;;6.85;3.97;;;;;;;;;;5049927;28;20033;-69
2023/07/07 02:01:20;;;;;;;11.65;4.40;;;;;;;;;;5032830;28;20036;-70
2023/07/07 02:03:45;;;;;;;6.57;3.95;;;;;;;;;;5054052;28;20025;-69
2023/07/07 02:06:11;;;;;;;8.30;4.00;;;;;;;;;;5037313;28;20037;-69
2023/07/07 02:08:36;;;;;;;5.55;4.15;;;;;;;;;;5032847;28;20021;-69
2023/07/07 02:11:01;;;;;;;9.88;4.35;;;;;;;;;;5007781;28;20072;-69
2023/07/07 02:13:27;;;;;;;11.02;4.32;;;;;;;;;;5044092;28;20031;-69
2023/07/07 02:15:52;;;;;;;7.28;4.28;;;;;;;;;;5054254;28;20512;-69
2023/07/07 02:18:19;;;;;;;12.15;4.60;;;;;;;;;;5037936;28;20403;-69
2023/07/07 02:20:45;;;;;;;8.07;3.75;;;;;;;;;;5053430;28;20037;-69
2023/07/07 02:23:10;;;;;;;10.38;4.20;;;;;;;;;;5016522;28;20021;-69
2023/07/07 02:25:36;;;;;;;11.63;3.72;;;;;;;;;;5019446;28;20110;-69
2023/07/07 02:28:01;;;;;;;8.60;3.97;;;;;;;;;;5017968;28;20112;-70
2023/07/07 02:30:26;;;;;;;7.47;3.83;;;;;;;;;;5032630;28;20049;-70
2023/07/07 02:32:52;;;;;;;6.53;3.60;;;;;;;;;;5034254;28;20037;-69
2023/07/07 02:35:17;;;;;;;11.38;4.28;;;;;;;;;;5035240;28;20044;-70
2023/07/07 02:37:43;;;;;;;7.53;3.85;;;;;;;;;;5016116;28;20021;-69
2023/07/07 02:40:09;;;;;;;5.85;3.78;;;;;;;;;;5005019;28;20036;-69
2023/07/07 02:42:35;;;;;;;11.13;3.58;;;;;;;;;;5052794;28;20025;-70
2023/07/07 02:45:00;;;;;;;7.43;3.38;;;;;;;;;;5046872;28;20471;-70
2023/07/07 02:47:27;;;;;;;8.18;3.70;;;;;;;;;;5033661;28;20052;-69
2023/07/07 02:49:52;;;;;;;8.35;3.65;;;;;;;;;;5044414;28;20037;-66
2023/07/07 02:52:18;;;;;;;8.30;3.55;;;;;;;;;;5054876;28;20028;-70
2023/07/07 02:54:43;;;;;;;3.95;3.22;;;;;;;;;;5027872;28;20623;-69
2023/07/07 02:57:09;;;;;;;7.25;3.97;;;;;;;;;;5048013;28;20128;-69
2023/07/07 02:59:34;;;;;;;8.85;3.22;;;;;;;;;;5043351;28;20867;-70
2023/07/07 03:01:59;;;;;;;10.00;3.40;;;;;;;;;;5038001;28;20038;-70
2023/07/07 03:04:26;;;;;;;7.15;3.53;;;;;;;;;;5034528;28;20028;-70
2023/07/07 03:06:52;;;;;;;9.57;3.63;;;;;;;;;;5053307;28;20045;-69
2023/07/07 03:09:18;;;;;;;9.70;3.88;;;;;;;;;;5055593;28;20162;-69
2023/07/07 03:11:44;;;;;;;10.15;3.88;;;;;;;;;;5024838;28;20046;-70
2023/07/07 03:14:09;;;;;;;14.20;4.28;;;;;;;;;;5052272;28;20082;-70
2023/07/07 03:16:35;;;;;;;13.43;4.43;;;;;;;;;;5030880;28;20633;-70
2023/07/07 03:19:03;;;;;;;10.80;4.82;;;;;;;;;;5052576;28;20538;-70
2023/07/07 03:21:29;;;;;;;9.73;4.65;;;;;;;;;;5031163;28;21212;-70
2023/07/07 03:23:56;;;;;;;11.10;3.80;;;;;;;;;;5053020;28;20078;-69
2023/07/07 03:26:24;;;;;;;6.97;5.00;;;;;;;;;;5050537;28;20139;-69
2023/07/07 03:28:50;;;;;;;9.57;4.20;;;;;;;;;;5036367;28;20021;-70
2023/07/07 03:31:27;;;;;;;12.27;5.05;;;;;;;;;;5051798;28;20124;-69
2023/07/07 03:33:55;;;;;;;7.38;4.30;;;;;;;;;;5048759;28;20448;-70
2023/07/07 03:36:26;;;;;;;17.20;4.95;;;;;;;;;;5054178;28;20115;-70
2023/07/07 03:38:52;;;;;;;9.80;4.10;;;;;;;;;;5055881;28;20033;-69
2023/07/07 03:41:21;;;;;;;9.38;4.78;;;;;;;;;;5047120;28;20531;-71
2023/07/07 03:43:46;;;;;;;9.50;4.70;;;;;;;;;;5052309;28;20049;-70
2023/07/07 03:46:14;;;;;;;13.85;5.57;;;;;;;;;;5043322;28;20041;-70
2023/07/07 03:48:40;;;;;;;9.80;4.90;;;;;;;;;;5025162;28;20500;-70
2023/07/07 03:51:06;;;;;;;9.02;4.75;;;;;;;;;;5059533;28;20037;-71
2023/07/07 03:53:32;;;;;;;14.90;4.78;;;;;;;;;;5061795;28;20032;-70
2023/07/07 03:55:58;;;;;;;8.68;4.88;;;;;;;;;;5038370;28;20068;-70
2023/07/07 03:58:25;;;;;;;10.98;4.85;;;;;;;;;;5038325;28;20036;-69
2023/07/07 04:00:51;;;;;;;8.82;4.68;;;;;;;;;;5021810;28;20029;-70
2023/07/07 04:03:17;;;;;;;10.00;5.10;;;;;;;;;;5044822;28;20028;-70
2023/07/07 04:05:47;;;;;;;7.35;4.53;;;;;;;;;;5037295;28;20086;-70
2023/07/07 04:08:15;;;;;;;6.93;4.35;;;;;;;;;;5037403;28;20025;-69
2023/07/07 04:10:41;;;;;;;7.38;4.47;;;;;;;;;;5032333;28;20045;-70
2023/07/07 04:13:07;;;;;;;8.05;4.30;;;;;;;;;;5039909;28;20043;-69
2023/07/07 04:15:33;;;;;;;8.02;4.82;;;;;;;;;;5026891;28;20129;-70
2023/07/07 04:17:59;;;;;;;8.50;4.32;;;;;;;;;;5019814;28;20056;-69
2023/07/07 04:20:24;;;;;;;7.15;4.10;;;;;;;;;;5057302;28;20091;-70
2023/07/07 04:22:49;;;;;;;9.93;4.50;;;;;;;;;;5055568;28;20028;-70
2023/07/07 04:25:16;;;;;;;8.00;4.70;;;;;;;;;;5019380;28;20047;-69
2023/07/07 04:27:43;;;;;;;11.52;4.35;;;;;;;;;;5024345;28;20760;-69
2023/07/07 04:30:10;;;;;;;10.73;4.03;;;;;;;;;;5052178;28;20128;-70
2023/07/07 04:32:36;;;;;;;8.38;4.40;;;;;;;;;;5018535;28;20029;-70
2023/07/07 04:35:03;;;;;;;8.95;4.05;;;;;;;;;;5052169;28;20028;-69
2023/07/07 04:37:29;;;;;;;5.95;3.80;;;;;;;;;;5037066;28;20421;-70
2023/07/07 04:39:55;;;;;;;8.13;4.18;;;;;;;;;;5055488;28;20021;-69
2023/07/07 04:42:20;;;;;;;5.38;3.60;;;;;;;;;;5030616;28;20039;-70
2023/07/07 04:44:45;;;;;;;9.13;4.60;;;;;;;;;;5044954;28;20025;-69
2023/07/07 04:47:11;;;;;;;11.90;4.28;;;;;;;;;;5039113;28;20405;-70
2023/07/07 04:49:36;;;;;;;12.13;4.13;;;;;;;;;;5039274;28;20040;-69
2023/07/07 04:52:02;;;;;;;7.97;4.50;;;;;;;;;;5043405;28;20463;-70
2023/07/07 04:54:28;;;;;;;10.10;4.28;;;;;;;;;;5039196;28;20025;-70
2023/07/07 04:56:53;;;;;;;6.85;4.55;;;;;;;;;;5017170;28;20071;-70
2023/07/07 04:59:19;;;;;;;7.47;4.05;;;;;;;;;;5055141;28;20048;-70
2023/07/07 05:01:45;;;;;;;10.05;4.30;;;;;;;;;;5035092;28;20048;-70
2023/07/07 05:04:11;;;;;;;9.27;4.18;;;;;;;;;;5041870;28;20118;-71
2023/07/07 05:06:38;;;;;;;6.20;3.88;;;;;;;;;;5052577;28;20040;-70
2023/07/07 05:09:08;;;;;;;7.65;3.75;;;;;;;;;;5027971;28;20026;-70
2023/07/07 05:11:34;;;;;;;12.73;4.47;;;;;;;;;;5020663;28;20563;-70
2023/07/07 05:14:01;;;;;;;13.65;4.28;;;;;;;;;;5032206;28;20475;-71
2023/07/07 05:16:37;;;;;;;9.48;4.78;;;;;;;;;;5042458;28;20076;-71
2023/07/07 05:19:03;;;;;;;11.88;4.68;;;;;;;;;;5037868;28;20093;-70
2023/07/07 05:21:28;;;;;;;12.20;4.35;;;;;;;;;;5047277;28;20458;-70
2023/07/07 05:23:55;;;;;;;11.88;4.50;;;;;;;;;;5055197;28;20180;-71
2023/07/07 05:26:22;;;;;;;10.23;4.30;;;;;;;;;;5053168;28;20509;-69
2023/07/07 05:28:48;;;;;;;7.57;4.60;;;;;;;;;;5051724;28;20032;-70
2023/07/07 05:31:14;;;;;;;6.55;4.18;;;;;;;;;;5034070;28;20729;-70
2023/07/07 05:33:39;;;;;;;9.63;4.65;;;;;;;;;;5033083;28;20403;-71
2023/07/07 05:36:10;;;;;;;7.10;4.20;;;;;;;;;;5035246;28;20094;-72
2023/07/07 05:38:39;;;;;;;9.45;3.92;;;;;;;;;;5051324;28;20466;-72
2023/07/07 05:41:05;;;;;;;10.07;4.63;;;;;;;;;;5047306;28;20048;-72
2023/07/07 05:43:30;;;;;;;6.32;4.35;;;;;;;;;;5048732;28;20021;-70
2023/07/07 05:46:04;;;;;;;10.07;4.40;;;;;;;;;;5033401;28;20460;-71
2023/07/07 05:48:30;;;;;;;8.85;4.70;;;;;;;;;;5035512;28;20021;-70
2023/07/07 05:50:59;;;;;;;8.05;4.63;;;;;;;;;;5026466;28;20045;-70
2023/07/07 05:53:24;;;;;;;9.82;4.82;;;;;;;;;;5053992;28;20051;-71
2023/07/07 05:55:50;;;;;;;5.55;4.05;;;;;;;;;;5020939;28;20453;-70
2023/07/07 05:58:17;;;;;;;9.48;4.72;;;;;;;;;;5046791;28;20069;-71
2023/07/07 06:00:43;;;;;;;11.93;4.68;;;;;;;;;;5051344;28;20134;-71
2023/07/07 06:03:08;;;;;;;9.55;4.60;;;;;;;;;;5056040;28;20024;-70
2023/07/07 06:05:34;;;;;;;7.75;3.85;;;;;;;;;;5031761;28;20041;-70
2023/07/07 06:08:00;;;;;;;7.47;4.00;;;;;;;;;;5051375;28;20031;-73
2023/07/07 06:10:25;;;;;;;9.13;4.57;;;;;;;;;;5016842;28;20036;-69
2023/07/07 06:12:52;;;;;;;11.18;3.95;;;;;;;;;;5034299;28;20029;-70
2023/07/07 06:15:17;;;;;;;10.93;4.60;;;;;;;;;;5051023;28;20053;-71
2023/07/07 06:17:44;;;;;;;5.55;3.72;;;;;;;;;;5050412;28;20028;-71
2023/07/07 06:20:11;;;;;;;7.43;3.72;;;;;;;;;;5032808;28;20040;-71
2023/07/07 06:22:36;;;;;;;8.80;4.13;;;;;;;;;;5047871;28;20391;-71
2023/07/07 06:25:03;;;;;;;7.85;4.15;;;;;;;;;;5034771;28;20032;-71
2023/07/07 06:27:28;;;;;;;7.28;4.53;;;;;;;;;;5027583;28;20118;-71
2023/07/07 06:29:54;;;;;;;13.38;4.15;;;;;;;;;;5030482;28;20429;-72
2023/07/07 06:32:19;;;;;;;6.25;3.97;;;;;;;;;;5027966;28;20063;-72
2023/07/07 06:34:46;;;;;;;14.48;4.35;;;;;;;;;;5047877;28;20422;-73
2023/07/07 06:37:11;;;;;;;9.32;3.65;;;;;;;;;;5048821;28;20469;-71
2023/07/07 06:39:37;;;;;;;11.93;4.97;;;;;;;;;;5032685;28;20029;-72
2023/07/07 06:42:02;;;;;;;7.07;3.45;;;;;;;;;;5034655;28;20414;-70
2023/07/07 06:44:28;;;;;;;7.95;4.28;;;;;;;;;;5033463;28;21461;-69
2023/07/07 06:46:53;;;;;;;13.27;3.60;;;;;;;;;;5022753;28;20049;-70
2023/07/07 06:49:19;;;;;;;9.38;4.20;;;;;;;;;;5035672;28;20048;-71
2023/07/07 06:51:44;;;;;;;14.82;4.45;;;;;;;;;;4998456;28;20043;-73
2023/07/07 06:54:10;;;;;;;10.10;4.05;;;;;;;;;;5035151;28;20032;-74
2023/07/07 06:56:36;;;;;;;10.07;4.25;;;;;;;;;;5034143;28;20044;-73
2023/07/07 06:59:04;;;;;;;7.32;4.15;;;;;;;;;;5029730;28;20017;-73
2023/07/07 07:01:29;;;;;;;8.32;3.60;;;;;;;;;;5034944;28;20112;-74
2023/07/07 07:03:55;;;;;;;9.02;3.95;;;;;;;;;;5037326;28;20102;-73
2023/07/07 07:06:20;;;;;;;8.73;3.92;;;;;;;;;;5020164;28;20494;-73
2023/07/07 07:08:45;;;;;;;8.32;4.18;;;;;;;;;;5032147;28;20033;-75
2023/07/07 07:11:11;;;;;;;10.13;4.38;;;;;;;;;;5051895;28;20047;-74
2023/07/07 07:13:36;;;;;;;12.00;3.97;;;;;;;;;;5055650;28;20047;-73
2023/07/07 07:16:03;;;;;;;9.88;4.05;;;;;;;;;;5019926;28;20069;-74
2023/07/07 07:18:28;;;;;;;13.85;4.00;;;;;;;;;;5054066;28;20025;-73
2023/07/07 07:20:54;;;;;;;9.80;4.32;;;;;;;;;;5012783;28;20379;-73
2023/07/07 07:23:21;;;;;;;9.65;3.65;;;;;;;;;;5037804;28;20040;-74
2023/07/07 07:25:46;;;;;;;10.45;4.32;;;;;;;;;;5055086;28;20044;-75
2023/07/07 07:28:13;;;;;;;9.27;3.90;;;;;;;;;;5052766;28;20025;-74
2023/07/07 07:30:39;;;;;;;13.45;4.40;;;;;;;;;;5039161;28;20036;-73
2023/07/07 07:33:15;;;;;;;11.85;4.20;;;;;;;;;;5044025;28;20502;-73
2023/07/07 07:35:41;;;;;;;12.60;4.18;;;;;;;;;;5050640;28;20038;-74
2023/07/07 07:38:08;;;;;;;13.23;3.85;;;;;;;;;;5042932;28;20093;-73
2023/07/07 07:40:33;;;;;;;9.38;4.03;;;;;;;;;;5047651;28;20092;-74
2023/07/07 07:42:59;;;;;;;8.50;3.83;;;;;;;;;;5057609;28;20017;-75
2023/07/07 07:45:24;;;;;;;8.32;4.40;;;;;;;;;;5044222;28;20483;-76
2023/07/07 07:47:51;;;;;;;7.78;3.85;;;;;;;;;;5051883;28;20111;-75
2023/07/07 07:50:18;;;;;;;9.50;4.22;;;;;;;;;;5050771;28;20037;-72
2023/07/07 07:52:45;;;;;;;10.10;4.22;;;;;;;;;;5035946;28;20115;-73
2023/07/07 07:55:11;;;;;;;8.50;3.58;;;;;;;;;;5041869;28;20772;-72
2023/07/07 07:57:36;;;;;;;13.23;4.00;;;;;;;;;;5025891;28;20545;-74
2023/07/07 08:00:04;;;;;;;8.32;3.72;;;;;;;;;;5050709;28;20084;-74
2023/07/07 08:02:30;;;;;;;6.28;3.55;;;;;;;;;;5056275;28;20027;-75
2023/07/07 08:04:56;;;;;;;8.73;4.32;;;;;;;;;;5035604;28;20017;-75
2023/07/07 08:07:21;;;;;;;7.88;3.80;;;;;;;;;;5041716;28;20025;-73
2023/07/07 08:09:47;;;;;;;9.52;4.35;;;;;;;;;;5039751;28;20039;-73
2023/07/07 08:12:12;;;;;;;8.77;3.55;;;;;;;;;;5053592;28;20048;-71
2023/07/07 08:14:38;;;;;;;7.07;3.17;;;;;;;;;;5039874;28;20029;-71
2023/07/07 08:17:09;;;;;;;8.75;3.58;;;;;;;;;;5020572;28;20064;-73
2023/07/07 08:19:37;;;;;;;10.38;4.13;;;;;;;;;;5020080;28;20021;-73
2023/07/07 08:22:06;;;;;;;13.98;4.35;;;;;;;;;;5031620;28;20140;-73
2023/07/07 08:24:36;;;;;;;9.38;4.20;;;;;;;;;;5050832;28;20044;-74
2023/07/07 08:27:02;;;;;;;7.45;3.83;;;;;;;;;;5027636;28;20203;-73
2023/07/07 08:29:27;;;;;;;12.20;4.32;;;;;;;;;;5033476;28;20632;-74
2023/07/07 08:31:54;;;;;;;8.82;3.67;;;;;;;;;;5034021;28;20036;-74
2023/07/07 08:34:20;;;;;;;10.27;4.40;;;;;;;;;;5030650;28;20076;-74
2023/07/07 08:36:46;;;;;;;5.75;3.50;;;;;;;;;;5018049;28;20056;-73
2023/07/07 08:39:18;;;;;;;8.23;4.15;;;;;;;;;;5046470;28;20113;-74
2023/07/07 08:41:52;;;;;;;8.27;3.95;;;;;;;;;;5034513;28;20081;-74
2023/07/07 08:44:22;;;;;;;9.80;4.30;;;;;;;;;;5035989;28;20032;-74
2023/07/07 08:47:07;;;;;;;9.60;4.53;;;;;;;;;;5032742;28;20576;-75
2023/07/07 08:49:58;;;;;;;11.43;3.90;;;;;;;;;;5051662;28;20107;-75
2023/07/07 08:52:35;;;;;;;10.13;4.20;;;;;;;;;;5053422;28;20064;-73
2023/07/07 08:55:25;;;;;;;13.25;4.28;;;;;;;;;;5019473;28;20052;-72
2023/07/07 08:58:01;;;;;;;10.43;4.30;;;;;;;;;;5053973;28;20025;-74
2023/07/07 09:01:04;;;;;;;9.07;4.20;;;;;;;;;;5028904;28;20033;-74
2023/07/07 09:04:03;;;;;;;9.57;4.32;;;;;;;;;;5034821;28;20021;-75
2023/07/07 09:06:49;;;;;;;6.10;3.83;;;;;;;;;;5048633;28;20040;-74
2023/07/07 09:09:26;;;;;;;8.55;4.10;;;;;;;;;;5051476;28;20025;-74
2023/07/07 09:12:07;;;;;;;7.68;3.55;;;;;;;;;;5060002;28;20492;-74
2023/07/07 09:14:34;;;;;;;13.52;4.53;;;;;;;;;;5044203;28;20116;-75
2023/07/07 09:17:06;;;;;;;11.88;4.40;;;;;;;;;;5010463;28;20045;-73
2023/07/07 09:19:36;;;;;;;6.93;4.00;;;;;;;;;;5051709;28;20498;-74
2023/07/07 09:22:13;;;;;;;12.48;4.10;;;;;;;;;;5018704;28;20057;-71
2023/07/07 09:24:57;;;;;;;7.18;3.45;;;;;;;;;;5035247;28;20031;-74
2023/07/07 09:27:31;;;;;;;9.43;4.15;;;;;;;;;;5047123;28;20156;-72
2023/07/07 09:30:54;;;;;;;9.50;4.32;;;;;;;;;;5051990;28;20025;-68
2023/07/07 09:33:21;;;;;;;6.22;4.53;;;;;;;;;;4985359;28;20030;-73
2023/07/07 09:35:53;;;;;;;8.88;4.55;;;;;;;;;;5037732;28;20498;-72
2023/07/07 09:38:40;;;;;;;9.35;4.50;;;;;;;;;;5047002;28;20024;-73
2023/07/07 09:41:23;;;;;;;19.35;4.18;;;;;;;;;;5052967;28;20052;-73
2023/07/07 09:43:56;;;;;;;9.70;4.47;;;;;;;;;;5033877;28;20025;-73
2023/07/07 09:46:24;;;;;;;11.85;4.40;;;;;;;;;;5041154;28;20044;-73
2023/07/07 09:49:12;;;;;;;9.23;3.85;;;;;;;;;;5055784;28;20035;-75
2023/07/07 09:52:23;;;;;;;13.73;3.63;;;;;;;;;;5051993;28;20171;-74
2023/07/07 09:54:49;;;;;;;8.33;4.23;;;;;;;;;;5029765;28;20052;-71
2023/07/07 09:57:34;;;;;;;6.65;3.95;;;;;;;;;;5052130;28;20438;-71
2023/07/07 10:00:01;;;;;;;14.07;4.18;;;;;;;;;;5057601;28;20092;-73
2023/07/07 10:02:27;;;;;;;6.38;4.15;;;;;;;;;;5033965;28;20116;-74
2023/07/07 10:05:06;;;;;;;11.32;3.78;;;;;;;;;;5035203;28;20025;-66
2023/07/07 10:07:36;;;;;;;11.88;4.05;;;;;;;;;;5034983;28;20029;-72
2023/07/07 10:10:04;;;;;;;10.48;4.70;;;;;;;;;;5029910;28;20090;-71
2023/07/07 10:12:30;;;;;;;11.98;4.53;;;;;;;;;;5047634;28;20033;-73
2023/07/07 10:14:56;;;;;;;10.48;4.38;;;;;;;;;;5013587;28;20374;-72
2023/07/07 10:17:44;;;;;;;10.13;4.07;;;;;;;;;;5047315;28;20091;-72
2023/07/07 10:20:10;;;;;;;11.52;4.30;;;;;;;;;;5012256;28;20044;-72
2023/07/07 10:22:35;;;;;;;11.95;4.28;;;;;;;;;;5050869;28;20033;-72
2023/07/07 10:25:04;;;;;;;11.57;4.35;;;;;;;;;;5035021;28;20544;-71
2023/07/07 10:27:30;;;;;;;8.23;4.13;;;;;;;;;;5050498;28;20125;-71
2023/07/07 10:29:59;;;;;;;8.55;3.95;;;;;;;;;;5035214;28;20021;-72
2023/07/07 10:32:26;;;;;;;10.20;4.28;;;;;;;;;;5055161;28;20372;-72
2023/07/07 10:34:54;;;;;;;11.13;4.28;;;;;;;;;;5050072;28;20571;-72
2023/07/07 10:37:22;;;;;;;14.25;4.70;;;;;;;;;;5048122;28;20052;-73
2023/07/07 10:39:52;;;;;;;7.90;4.57;;;;;;;;;;5047965;28;20044;-72
2023/07/07 10:42:20;;;;;;;5.90;4.10;;;;;;;;;;5047436;28;20483;-75
2023/07/07 10:44:45;;;;;;;14.05;5.10;;;;;;;;;;5045805;28;20018;-75
2023/07/07 10:47:12;;;;;;;7.97;4.47;;;;;;;;;;5055593;28;20040;-73
2023/07/07 10:49:37;;;;;;;7.90;4.22;;;;;;;;;;5023166;28;20020;-72
2023/07/07 10:52:14;;;;;;;9.98;4.47;;;;;;;;;;5059236;28;20037;-73
2023/07/07 10:54:59;;;;;;;8.23;4.40;;;;;;;;;;5051228;28;20088;-74
2023/07/07 10:57:47;;;;;;;6.80;4.15;;;;;;;;;;5041031;28;20052;-73
2023/07/07 11:00:45;;;;;;;12.60;4.80;;;;;;;;;;5055505;28;20048;-72
2023/07/07 11:03:38;;;;;;;10.32;3.80;;;;;;;;;;5018534;28;20033;-73
2023/07/07 11:06:34;;;;;;;9.70;4.03;;;;;;;;;;5057415;28;20132;-72
2023/07/07 11:09:25;;;;;;;9.13;4.40;;;;;;;;;;5053713;28;20112;-73
2023/07/07 11:12:01;;;;;;;9.98;3.95;;;;;;;;;;5040141;28;20029;-74
2023/07/07 11:14:47;;;;;;;12.52;4.47;;;;;;;;;;5058681;28;20044;-74
2023/07/07 11:17:22;;;;;;;9.43;4.97;;;;;;;;;;5055249;28;20045;-73
2023/07/07 11:20:04;;;;;;;5.57;4.38;;;;;;;;;;5050520;28;20039;-73
2023/07/07 11:22:39;;;;;;;12.90;4.43;;;;;;;;;;5051256;28;20502;-73
2023/07/07 11:25:16;;;;;;;11.75;4.28;;;;;;;;;;5057653;28;20032;-73
2023/07/07 11:27:47;;;;;;;10.73;4.55;;;;;;;;;;5059803;28;20055;-72
2023/07/07 11:30:50;;;;;;;9.35;4.65;;;;;;;;;;5040097;28;20091;-72
2023/07/07 11:33:53;;;;;;;10.63;4.55;;;;;;;;;;5055323;28;20044;-73
2023/07/07 11:36:19;;;;;;;9.10;4.78;;;;;;;;;;5061074;28;20086;-74
2023/07/07 11:39:09;;;;;;;9.45;4.45;;;;;;;;;;5033491;28;20033;-75
2023/07/07 11:42:13;;;;;;;5.82;4.00;;;;;;;;;;5044768;28;20043;-75
2023/07/07 11:45:04;;;;;;;10.73;4.95;;;;;;;;;;5050053;28;20033;-73
2023/07/07 11:47:43;;;;;;;7.03;4.68;;;;;;;;;;5034884;28;20049;-74
2023/07/07 11:50:36;;;;;;;11.20;4.57;;;;;;;;;;5053238;28;20052;-72
2023/07/07 11:53:24;;;;;;;8.88;4.72;;;;;;;;;;5035723;28;20029;-72
2023/07/07 11:56:08;;;;;;;8.63;5.03;;;;;;;;;;5018152;28;20178;-74
2023/07/07 11:58:39;;;;;;;8.75;4.85;;;;;;;;;;5051896;28;20086;-73
2023/07/07 12:01:05;;;;;;;;;;;;;;;;;;5035941;28;20782;-70
2023/07/07 12:03:50;;;;;;;8.27;4.90;;;;;;;;;;5055404;28;19919;-71
2023/07/07 12:06:33;;;;;;;10.23;4.38;;;;;;;;;;5051786;28;20033;-72
2023/07/07 12:09:18;;;;;;;7.25;4.60;;;;;;;;;;5048021;28;20478;-73
2023/07/07 12:11:51;;;;;;;10.10;4.53;;;;;;;;;;5052698;28;20041;-72
2023/07/07 12:14:38;;;;;;;8.98;4.93;;;;;;;;;;5053674;28;20108;-72
2023/07/07 12:17:09;;;;;;;9.82;4.30;;;;;;;;;;5050246;28;20057;-73
2023/07/07 12:19:42;;;;;;;7.95;4.45;;;;;;;;;;5054972;28;20443;-72
2023/07/07 12:22:22;;;;;;;10.25;4.57;;;;;;;;;;5036382;28;20071;-71
2023/07/07 12:25:26;;;;;;;8.77;4.00;;;;;;;;;;5030988;28;20021;-70
2023/07/07 12:27:53;;;;;;;9.20;4.43;;;;;;;;;;5047574;28;20132;-72
2023/07/07 12:30:25;;;;;;;13.40;4.65;;;;;;;;;;5035204;28;20041;-72
2023/07/07 12:32:52;;;;;;;12.15;4.47;;;;;;;;;;5039862;28;20029;-75
2023/07/07 12:35:28;;;;;;;6.53;4.47;;;;;;;;;;5047278;28;20116;-74
2023/07/07 12:38:13;;;;;;;12.43;4.97;;;;;;;;;;5048650;28;20028;-75
2023/07/07 12:40:48;;;;;;;12.23;5.22;;;;;;;;;;5054302;28;20068;-74
2023/07/07 12:43:27;;;;;;;8.68;4.55;;;;;;;;;;5051469;28;20036;-75
2023/07/07 12:45:52;;;;;;;11.35;4.88;;;;;;;;;;5032528;28;22103;-76
2023/07/07 12:48:21;;;;;;;15.00;4.45;;;;;;;;;;5050980;28;20123;-74
2023/07/07 12:50:48;;;;;;;11.52;4.95;;;;;;;;;;5033700;28;20047;-75
2023/07/07 12:53:27;;;;;;;8.18;4.25;;;;;;;;;;5053510;28;20056;-75
2023/07/07 12:56:06;;;;;;;8.50;4.38;;;;;;;;;;5052443;28;20128;-75
2023/07/07 12:58:44;;;;;;;7.10;4.50;;;;;;;;;;5041231;28;20063;-75
2023/07/07 13:01:13;;;;;;;7.60;4.40;;;;;;;;;;5016599;28;20045;-75
2023/07/07 13:04:07;;;;;;;10.50;4.40;;;;;;;;;;5052881;28;20025;-76
2023/07/07 13:06:51;;;;;;;12.02;4.50;;;;;;;;;;5048328;28;20538;-74
2023/07/07 13:09:20;;;;;;;11.52;5.18;;;;;;;;;;5054426;28;20021;-73
2023/07/07 13:11:49;;;;;;;9.73;4.55;;;;;;;;;;5051271;28;20047;-75
2023/07/07 13:14:31;;;;;;;13.25;4.88;;;;;;;;;;5045304;28;20040;-74
2023/07/07 13:16:58;;;;;;;14.60;5.25;;;;;;;;;;5051507;28;20137;-75
2023/07/07 13:19:24;;;;;;;12.30;5.05;;;;;;;;;;5056796;28;20119;-74
2023/07/07 13:21:53;;;;;;;11.45;5.03;;;;;;;;;;5049243;28;20036;-76
2023/07/07 13:24:21;;;;;;;10.80;4.57;;;;;;;;;;5033905;28;20028;-75
2023/07/07 13:26:47;;;;;;;8.77;5.57;;;;;;;;;;5051864;28;20072;-75
2023/07/07 13:29:12;;;;;;;8.27;4.88;;;;;;;;;;5025231;28;20440;-73
2023/07/07 13:31:39;;;;;;;11.85;4.28;;;;;;;;;;5032745;28;20124;-75
2023/07/07 13:34:10;;;;;;;19.60;4.53;;;;;;;;;;5032497;28;20032;-74
2023/07/07 13:36:36;;;;;;;8.20;4.30;;;;;;;;;;5036309;28;20036;-74
2023/07/07 13:39:01;;;;;;;11.52;5.13;;;;;;;;;;5019862;28;20085;-74
2023/07/07 13:41:27;;;;;;;10.10;4.90;;;;;;;;;;5038860;28;20533;-75
2023/07/07 13:43:55;;;;;;;15.18;5.10;;;;;;;;;;5023978;28;20063;-73
2023/07/07 13:46:26;;;;;;;11.63;4.53;;;;;;;;;;5013317;28;20036;-72
2023/07/07 13:49:02;;;;;;;8.20;4.72;;;;;;;;;;5057206;28;20033;-75
2023/07/07 13:51:33;;;;;;;8.93;4.63;;;;;;;;;;5037021;28;20037;-74
2023/07/07 13:54:01;;;;;;;9.85;4.78;;;;;;;;;;5027200;28;20040;-75
2023/07/07 13:56:27;;;;;;;7.82;4.40;;;;;;;;;;5052386;28;20047;-75
2023/07/07 13:58:53;;;;;;;12.75;4.20;;;;;;;;;;5030893;28;20507;-75
2023/07/07 14:01:30;;;;;;;10.20;4.63;;;;;;;;;;5050237;28;20040;-73
2023/07/07 14:03:58;;;;;;;16.98;4.38;;;;;;;;;;5037811;28;20406;-73
2023/07/07 14:06:24;;;;;;;10.88;4.57;;;;;;;;;;5046961;28;20040;-73
2023/07/07 14:08:51;;;;;;;16.30;4.68;;;;;;;;;;5032732;28;20035;-73
2023/07/07 14:11:26;;;;;;;10.20;4.60;;;;;;;;;;5044348;28;20368;-72
2023/07/07 14:13:53;;;;;;;5.45;3.80;;;;;;;;;;5043650;28;20052;-74
2023/07/07 14:16:27;;;;;;;13.57;3.95;;;;;;;;;;5053642;28;20105;-73
2023/07/07 14:19:13;;;;;;;8.32;4.63;;;;;;;;;;5045415;28;20047;-73
2023/07/07 14:21:40;;;;;;;12.35;4.07;;;;;;;;;;5049953;28;20039;-74
2023/07/07 14:24:06;;;;;;;10.05;4.38;;;;;;;;;;5036150;28;20028;-73
2023/07/07 14:26:33;;;;;;;9.00;3.97;;;;;;;;;;5038068;28;20037;-73
2023/07/07 14:28:58;;;;;;;8.63;4.15;;;;;;;;;;5050211;28;20091;-73
2023/07/07 14:31:25;;;;;;;12.05;4.22;;;;;;;;;;5037437;28;20056;-73
2023/07/07 14:33:58;;;;;;;10.90;4.10;;;;;;;;;;5051498;28;20394;-74
2023/07/07 14:36:44;;;;;;;14.63;4.22;;;;;;;;;;5029436;28;20033;-73
2023/07/07 14:39:21;;;;;;;6.40;3.85;;;;;;;;;;5050737;28;20068;-75
2023/07/07 14:41:48;;;;;;;14.65;4.80;;;;;;;;;;5046240;28;20076;-73
2023/07/07 14:44:36;;;;;;;11.13;4.13;;;;;;;;;;5034302;28;20025;-76
2023/07/07 14:47:01;;;;;;;7.00;3.63;;;;;;;;;;5032304;28;20511;-75
2023/07/07 14:49:28;;;;;;;6.60;3.90;;;;;;;;;;5031463;28;20025;-75
2023/07/07 14:51:55;;;;;;;9.57;4.05;;;;;;;;;;5038135;28;20076;-74
2023/07/07 14:54:22;;;;;;;12.55;4.18;;;;;;;;;;5035394;28;20037;-73
2023/07/07 14:56:52;;;;;;;7.15;4.63;;;;;;;;;;5034828;28;20391;-75
2023/07/07 14:59:31;;;;;;;9.85;4.10;;;;;;;;;;5040030;28;20036;-76
2023/07/07 15:01:59;;;;;;;9.25;4.55;;;;;;;;;;5047834;28;20387;-73